Time;durP1;ratioP1;P1;durP2;ratioP2;P2;SDS_P1;SDS_P2;PMS_P1;PMS_P2;Temp;Humidity;BMP_temperature;BMP_pressure;BME280_temperature;BME280_humidity;BME280_pressure;Samples;Min_cycle;Max_cycle;Signal;HPM_P1;HPM_P2
2020/12/29 00:01:45;;;;;;;1999.90;999.90;;;4.60;99.90;;;;;;5072867;28;20076;-92
2020/12/29 00:04:15;;;;;;;1999.90;999.90;;;4.60;99.90;;;;;;5075560;28;20464;-92
2020/12/29 00:06:47;;;;;;;1999.90;999.90;;;4.60;99.90;;;;;;5072143;28;20106;-92
2020/12/29 00:09:15;;;;;;;1999.90;999.90;;;4.60;99.90;;;;;;5064378;28;20156;-92
2020/12/29 00:11:43;;;;;;;1999.90;999.90;;;4.70;99.90;;;;;;5073516;28;20156;-92
2020/12/29 00:14:10;;;;;;;1999.90;999.90;;;4.60;99.90;;;;;;5063474;28;20151;-92
2020/12/29 00:16:37;;;;;;;1999.90;999.90;;;4.70;99.90;;;;;;5063336;28;20052;-92
2020/12/29 00:19:07;;;;;;;1999.90;999.90;;;4.60;99.90;;;;;;5073484;28;20131;-92
2020/12/29 00:21:34;;;;;;;1999.90;999.90;;;4.60;99.90;;;;;;5075381;28;20062;-92
2020/12/29 00:24:02;;;;;;;1999.90;999.90;;;4.60;99.90;;;;;;5073344;28;20713;-92
2020/12/29 00:26:29;;;;;;;1999.90;999.90;;;4.60;99.90;;;;;;5068986;28;20049;-88
2020/12/29 00:28:56;;;;;;;1999.90;999.90;;;4.70;99.90;;;;;;5069198;28;20075;-92
2020/12/29 00:31:24;;;;;;;1999.90;999.90;;;4.60;99.90;;;;;;5074308;28;20070;-92
2020/12/29 00:33:56;;;;;;;1999.90;999.90;;;4.60;99.90;;;;;;5072614;28;20047;-91
2020/12/29 00:36:23;;;;;;;1999.90;999.90;;;4.60;99.90;;;;;;5069069;28;20049;-92
2020/12/29 00:38:51;;;;;;;1999.90;999.90;;;4.70;99.90;;;;;;5072376;28;20090;-91
2020/12/29 00:41:20;;;;;;;1999.90;999.90;;;4.60;99.90;;;;;;5062744;28;20056;-92
2020/12/29 00:43:47;;;;;;;1999.90;999.90;;;4.60;99.90;;;;;;5074097;28;20075;-91
2020/12/29 00:46:19;;;;;;;1999.90;999.90;;;4.60;99.90;;;;;;5056580;28;20080;-92
2020/12/29 00:48:48;;;;;;;1999.90;999.90;;;4.60;99.90;;;;;;5066621;28;20099;-92
2020/12/29 00:51:22;;;;;;;1999.90;999.90;;;4.60;99.90;;;;;;5070569;28;20080;-92
2020/12/29 00:53:49;;;;;;;1999.90;999.90;;;4.60;99.90;;;;;;5065248;28;20045;-92
2020/12/29 00:56:16;;;;;;;1999.90;999.90;;;4.60;99.90;;;;;;5071832;28;20094;-92
2020/12/29 00:58:44;;;;;;;1999.90;999.90;;;4.60;99.90;;;;;;5063939;28;20083;-92
2020/12/29 01:01:12;;;;;;;1999.90;999.90;;;4.50;99.90;;;;;;5060883;28;20048;-92
2020/12/29 01:03:39;;;;;;;1999.90;999.90;;;4.60;99.90;;;;;;5061916;28;20044;-92
2020/12/29 01:06:07;;;;;;;1999.90;999.90;;;4.50;99.90;;;;;;5073520;28;20079;-91
2020/12/29 01:08:34;;;;;;;1999.90;999.90;;;4.60;99.90;;;;;;5070655;28;20056;-92
2020/12/29 01:11:01;;;;;;;1999.90;999.90;;;4.50;99.90;;;;;;5062814;28;20184;-92
2020/12/29 01:13:28;;;;;;;1999.90;999.90;;;4.60;99.90;;;;;;5057598;28;20073;-92
2020/12/29 01:15:56;;;;;;;1999.90;999.90;;;4.60;99.90;;;;;;5064841;28;20550;-92
2020/12/29 01:18:23;;;;;;;1999.90;999.90;;;4.50;99.90;;;;;;5073878;28;20079;-92
2020/12/29 01:20:50;;;;;;;1999.90;999.90;;;4.50;99.90;;;;;;5071731;28;20040;-92
2020/12/29 01:23:19;;;;;;;1999.90;999.90;;;4.60;99.90;;;;;;5060842;28;20053;-92
2020/12/29 01:25:46;;;;;;;1999.90;999.90;;;4.60;99.90;;;;;;5059448;28;20056;-92
2020/12/29 01:28:13;;;;;;;1999.90;999.90;;;4.60;99.90;;;;;;5073904;28;20090;-92
2020/12/29 01:30:40;;;;;;;1999.90;999.90;;;4.60;99.90;;;;;;5061108;28;20132;-92
2020/12/29 01:33:08;;;;;;;1999.90;999.90;;;4.60;99.90;;;;;;5062033;28;20040;-92
2020/12/29 01:35:35;;;;;;;1999.90;999.90;;;4.60;99.90;;;;;;5071060;28;20076;-92
2020/12/29 01:38:03;;;;;;;1999.90;999.90;;;4.60;99.90;;;;;;5058243;28;20084;-92
2020/12/29 01:40:31;;;;;;;1999.90;999.90;;;4.60;99.90;;;;;;5066679;28;20048;-92
2020/12/29 01:42:58;;;;;;;1999.90;999.90;;;4.60;99.90;;;;;;5071566;28;20491;-92
2020/12/29 01:45:26;;;;;;;1999.90;999.90;;;4.60;99.90;;;;;;5068375;28;20057;-92
2020/12/29 01:47:53;;;;;;;1999.90;999.90;;;4.60;99.90;;;;;;5068226;28;20059;-91
2020/12/29 01:50:24;;;;;;;1999.90;999.90;;;4.60;99.90;;;;;;5072070;28;20087;-92
2020/12/29 01:52:57;;;;;;;1999.90;999.90;;;4.60;99.90;;;;;;5054010;28;20045;-92
2020/12/29 01:55:25;;;;;;;1999.90;999.90;;;4.60;99.90;;;;;;5065915;28;20095;-91
2020/12/29 01:57:53;;;;;;;1999.90;999.90;;;4.60;99.90;;;;;;5069194;28;20227;-92
2020/12/29 02:00:20;;;;;;;1999.90;999.90;;;4.60;99.90;;;;;;5054073;28;20127;-92
2020/12/29 02:02:48;;;;;;;1999.90;999.90;;;4.60;99.90;;;;;;5067025;28;20571;-91
2020/12/29 02:05:15;;;;;;;1999.90;999.90;;;4.60;99.90;;;;;;5062560;28;20132;-92
2020/12/29 02:07:43;;;;;;;1999.90;999.90;;;4.60;99.90;;;;;;5065167;28;20143;-92
2020/12/29 02:10:11;;;;;;;1999.90;999.90;;;4.60;99.90;;;;;;5071906;28;20080;-92
2020/12/29 02:12:38;;;;;;;1999.90;999.90;;;4.60;99.90;;;;;;5060901;28;20052;-92
2020/12/29 02:15:07;;;;;;;1999.90;999.90;;;4.60;99.90;;;;;;5067124;28;20128;-92
2020/12/29 02:17:35;;;;;;;1999.90;999.90;;;4.70;99.90;;;;;;5053720;28;20119;-92
2020/12/29 02:20:02;;;;;;;1999.90;999.90;;;4.70;99.90;;;;;;5057487;28;20540;-91
2020/12/29 02:22:30;;;;;;;1999.90;999.90;;;4.70;99.90;;;;;;5062886;28;20143;-91
2020/12/29 02:24:59;;;;;;;1999.90;999.90;;;4.70;99.90;;;;;;5053461;28;20057;-91
2020/12/29 02:27:28;;;;;;;1999.90;999.90;;;4.70;99.90;;;;;;5053390;28;20139;-92
2020/12/29 02:29:56;;;;;;;1999.90;999.90;;;4.70;99.90;;;;;;5068843;28;20052;-92
2020/12/29 02:32:24;;;;;;;1999.90;999.90;;;4.70;99.90;;;;;;5073479;28;20052;-92
2020/12/29 02:34:52;;;;;;;1999.90;999.90;;;4.70;99.90;;;;;;5073205;28;20483;-92
2020/12/29 02:37:20;;;;;;;1999.90;999.90;;;4.80;99.90;;;;;;5058142;28;20151;-92
2020/12/29 02:39:52;;;;;;;1999.90;999.90;;;4.80;99.90;;;;;;5060041;28;20527;-91
2020/12/29 02:42:19;;;;;;;1999.90;999.90;;;4.80;99.90;;;;;;5067715;28;20053;-92
2020/12/29 02:44:47;;;;;;;1999.90;999.90;;;4.80;99.90;;;;;;5064584;28;20048;-91
2020/12/29 02:47:14;;;;;;;1999.90;999.90;;;4.80;99.90;;;;;;5061348;28;20045;-92
2020/12/29 02:49:41;;;;;;;1999.90;999.90;;;4.80;99.90;;;;;;5075910;28;20098;-91
2020/12/29 02:52:08;;;;;;;1999.90;999.90;;;4.80;99.90;;;;;;5062588;28;20049;-92
2020/12/29 02:54:36;;;;;;;1999.90;999.90;;;4.80;99.90;;;;;;5076853;28;20064;-92
2020/12/29 02:57:04;;;;;;;1999.90;999.90;;;4.80;99.90;;;;;;5076738;28;20064;-92
2020/12/29 02:59:31;;;;;;;1999.90;999.90;;;4.80;99.90;;;;;;5073532;28;20135;-92
2020/12/29 03:01:58;;;;;;;1999.90;999.90;;;4.80;99.90;;;;;;5064605;28;20055;-92
2020/12/29 03:04:25;;;;;;;1999.90;999.90;;;4.80;99.90;;;;;;5073602;28;20064;-92
2020/12/29 03:06:52;;;;;;;1999.90;999.90;;;4.80;99.90;;;;;;5067910;28;20465;-92
2020/12/29 03:09:20;;;;;;;1999.90;999.90;;;4.80;99.90;;;;;;5065045;28;20060;-92
2020/12/29 03:11:47;;;;;;;1999.90;999.90;;;4.90;99.90;;;;;;5076217;28;20167;-92
2020/12/29 03:14:15;;;;;;;1999.90;999.90;;;4.80;99.90;;;;;;5063350;28;20110;-92
2020/12/29 03:16:42;;;;;;;1999.90;999.90;;;4.80;99.90;;;;;;5076305;28;20063;-92
2020/12/29 03:19:21;;;;;;;1999.90;999.90;;;4.80;99.90;;;;;;5062873;28;20059;-92
2020/12/29 03:21:49;;;;;;;1999.90;999.90;;;4.80;99.90;;;;;;5075616;28;20048;-92
2020/12/29 03:24:17;;;;;;;1999.90;999.90;;;4.80;99.90;;;;;;5069901;28;20076;-92
2020/12/29 03:26:44;;;;;;;1999.90;999.90;;;4.80;99.90;;;;;;5074251;28;20100;-92
2020/12/29 03:29:11;;;;;;;1999.90;999.90;;;4.80;99.90;;;;;;5062312;28;20057;-92
2020/12/29 03:31:43;;;;;;;1999.90;999.90;;;4.80;99.90;;;;;;5071150;28;20188;-92
2020/12/29 03:34:15;;;;;;;1999.90;999.90;;;4.80;99.90;;;;;;5060230;28;20129;-93
2020/12/29 03:36:42;;;;;;;1999.90;999.90;;;4.80;99.90;;;;;;5070772;28;20048;-93
2020/12/29 03:39:09;;;;;;;1999.90;999.90;;;4.90;99.90;;;;;;5067835;28;20060;-93
2020/12/29 03:41:37;;;;;;;1999.90;999.90;;;4.90;99.90;;;;;;5062318;28;20080;-93
2020/12/29 03:44:04;;;;;;;1999.90;999.90;;;4.90;99.90;;;;;;5076311;28;20792;-93
2020/12/29 03:46:31;;;;;;;1999.90;999.90;;;4.90;99.90;;;;;;5062407;28;20049;-92
2020/12/29 03:48:59;;;;;;;1999.90;999.90;;;4.90;99.90;;;;;;5065824;28;20105;-93
2020/12/29 03:51:27;;;;;;;1999.90;999.90;;;4.90;99.90;;;;;;5072675;28;20061;-93
2020/12/29 03:53:54;;;;;;;1999.90;999.90;;;4.90;99.90;;;;;;5061936;28;20133;-87
2020/12/29 03:56:21;;;;;;;1999.90;999.90;;;4.90;99.90;;;;;;5066375;28;20448;-88
2020/12/29 03:58:48;;;;;;;1999.90;999.90;;;4.90;99.90;;;;;;5077988;28;20068;-88
2020/12/29 04:01:15;;;;;;;1999.90;999.90;;;4.90;99.90;;;;;;5073574;28;20215;-88
2020/12/29 04:03:44;;;;;;;1999.90;999.90;;;4.90;99.90;;;;;;5075370;28;20052;-88
2020/12/29 04:06:12;;;;;;;1999.90;999.90;;;4.90;99.90;;;;;;5073872;28;20048;-89
2020/12/29 04:08:40;;;;;;;1999.90;999.90;;;4.90;99.90;;;;;;5075778;28;20052;-88
2020/12/29 04:11:07;;;;;;;1999.90;999.90;;;4.90;99.90;;;;;;5075983;28;20117;-89
2020/12/29 04:13:51;;;;;;;1999.90;999.90;;;4.90;99.90;;;;;;5068610;28;20049;-88
2020/12/29 04:16:21;;;;;;;1999.90;999.90;;;4.90;99.90;;;;;;5070648;28;20106;-88
2020/12/29 04:18:48;;;;;;;1999.90;999.90;;;4.90;99.90;;;;;;5069817;28;20060;-88
2020/12/29 04:21:16;;;;;;;1999.90;999.90;;;4.90;99.90;;;;;;5060580;28;20106;-88
2020/12/29 04:23:44;;;;;;;1999.90;999.90;;;4.90;99.90;;;;;;5062727;28;20068;-88
2020/12/29 04:26:12;;;;;;;1999.90;999.90;;;4.90;99.90;;;;;;5073805;28;20048;-88
2020/12/29 04:28:39;;;;;;;1999.90;999.90;;;4.90;99.90;;;;;;5075084;28;20057;-88
2020/12/29 04:31:10;;;;;;;1999.90;999.90;;;4.90;99.90;;;;;;5067787;28;20098;-88
2020/12/29 04:33:38;;;;;;;1999.90;999.90;;;4.90;99.90;;;;;;5065731;28;20049;-88
2020/12/29 04:36:06;;;;;;;1999.90;999.90;;;4.90;99.90;;;;;;5068968;28;20048;-88
2020/12/29 04:38:34;;;;;;;1999.90;999.90;;;4.90;99.90;;;;;;5075130;28;20068;-88
2020/12/29 04:41:01;;;;;;;1999.90;999.90;;;4.90;99.90;;;;;;5072347;28;20076;-87
2020/12/29 04:43:30;;;;;;;1999.90;999.90;;;4.90;99.90;;;;;;5074389;28;20075;-91
2020/12/29 04:46:00;;;;;;;1999.90;999.90;;;4.90;99.90;;;;;;5073011;28;20450;-91
2020/12/29 04:48:27;;;;;;;1999.90;999.90;;;4.90;99.90;;;;;;5060955;28;20048;-91
2020/12/29 04:51:01;;;;;;;1999.90;999.90;;;5.00;99.90;;;;;;5073077;28;20922;-91
2020/12/29 04:53:33;;;;;;;1999.90;999.90;;;5.00;99.90;;;;;;5067803;28;20079;-91
2020/12/29 04:56:09;;;;;;;1999.90;999.90;;;4.90;99.90;;;;;;5061931;28;20044;-91
2020/12/29 04:58:38;;;;;;;1999.90;999.90;;;4.90;99.90;;;;;;5068596;28;20384;-91
2020/12/29 05:01:07;;;;;;;1999.90;999.90;;;4.90;99.90;;;;;;5068167;28;20048;-91
2020/12/29 05:03:45;;;;;;;1999.90;999.90;;;4.90;99.90;;;;;;5066688;28;20050;-91
2020/12/29 05:06:12;;;;;;;1999.90;999.90;;;5.00;99.90;;;;;;5068107;28;20090;-91
2020/12/29 05:08:44;;;;;;;1999.90;999.90;;;5.00;99.90;;;;;;5070323;28;20086;-91
2020/12/29 05:11:13;;;;;;;1999.90;999.90;;;4.90;99.90;;;;;;5064160;28;20080;-91
2020/12/29 05:13:41;;;;;;;1999.90;999.90;;;4.90;99.90;;;;;;5054126;28;20052;-91
2020/12/29 05:16:08;;;;;;;1999.90;999.90;;;5.00;99.90;;;;;;5067823;28;20051;-90
2020/12/29 05:18:36;;;;;;;1999.90;999.90;;;5.00;99.90;;;;;;5055093;28;20049;-91
2020/12/29 05:21:04;;;;;;;1999.90;999.90;;;4.90;99.90;;;;;;5072551;28;20071;-91
2020/12/29 05:23:31;;;;;;;1999.90;999.90;;;4.90;99.90;;;;;;5062077;28;20820;-91
2020/12/29 05:25:58;;;;;;;1999.90;999.90;;;5.00;99.90;;;;;;5070586;28;20111;-90
2020/12/29 05:28:27;;;;;;;1999.90;999.90;;;5.00;99.90;;;;;;5063315;28;20048;-90
2020/12/29 05:30:55;;;;;;;1999.90;999.90;;;5.00;99.90;;;;;;5069942;28;20118;-91
2020/12/29 05:33:26;;;;;;;1999.90;999.90;;;5.00;99.90;;;;;;5065621;28;20051;-91
2020/12/29 05:35:53;;;;;;;1999.90;999.90;;;5.00;99.90;;;;;;5067728;28;20079;-91
2020/12/29 05:38:21;;;;;;;1999.90;999.90;;;5.00;99.90;;;;;;5054056;28;20144;-91
2020/12/29 05:40:49;;;;;;;1999.90;999.90;;;5.00;99.90;;;;;;5054148;28;20045;-91
2020/12/29 05:43:28;;;;;;;1999.90;999.90;;;5.00;99.90;;;;;;5058163;28;20799;-91
2020/12/29 05:45:57;;;;;;;1999.90;999.90;;;4.90;99.90;;;;;;5062793;28;20118;-91
2020/12/29 05:48:24;;;;;;;1999.90;999.90;;;4.90;99.90;;;;;;5060479;28;20477;-91
2020/12/29 05:50:51;;;;;;;1999.90;999.90;;;4.90;99.90;;;;;;5063717;28;20071;-91
2020/12/29 05:53:20;;;;;;;1999.90;999.90;;;4.90;99.90;;;;;;5064923;28;20045;-91
2020/12/29 05:55:47;;;;;;;1999.90;999.90;;;4.90;99.90;;;;;;5073899;28;20101;-90
2020/12/29 05:58:16;;;;;;;1999.90;999.90;;;4.90;99.90;;;;;;5064049;28;20144;-91
2020/12/29 06:00:45;;;;;;;1999.90;999.90;;;4.90;99.90;;;;;;5067578;28;20450;-91
2020/12/29 06:03:12;;;;;;;1999.90;999.90;;;4.90;99.90;;;;;;5070309;28;20078;-91
2020/12/29 06:05:39;;;;;;;1999.90;999.90;;;4.90;99.90;;;;;;5058724;28;20095;-91
2020/12/29 06:08:08;;;;;;;1999.90;999.90;;;4.90;99.90;;;;;;5060271;28;20052;-90
2020/12/29 06:10:37;;;;;;;1999.90;999.90;;;4.90;99.90;;;;;;5073262;28;20053;-91
2020/12/29 06:13:05;;;;;;;1999.90;999.90;;;4.90;99.90;;;;;;5073457;28;20151;-91
2020/12/29 06:15:35;;;;;;;1999.90;999.90;;;4.90;99.90;;;;;;5060693;28;20488;-91
2020/12/29 06:18:04;;;;;;;1999.90;999.90;;;4.90;99.90;;;;;;5071699;28;20155;-88
2020/12/29 06:20:36;;;;;;;1999.90;999.90;;;4.90;99.90;;;;;;5071495;28;20080;-88
2020/12/29 06:23:05;;;;;;;1999.90;999.90;;;4.90;99.90;;;;;;5072645;28;20044;-88
2020/12/29 06:25:35;;;;;;;1999.90;999.90;;;4.90;99.90;;;;;;5073868;28;20045;-89
2020/12/29 06:28:03;;;;;;;1999.90;999.90;;;4.90;99.90;;;;;;5070859;28;20095;-88
2020/12/29 06:30:31;;;;;;;1999.90;999.90;;;4.90;99.90;;;;;;5073000;28;20106;-88
2020/12/29 06:32:59;;;;;;;1999.90;999.90;;;4.80;99.90;;;;;;5073111;28;20144;-88
2020/12/29 06:35:28;;;;;;;1999.90;999.90;;;4.90;99.90;;;;;;5062333;28;20072;-88
2020/12/29 06:38:04;;;;;;;1999.90;999.90;;;4.90;99.90;;;;;;5054631;28;20098;-88
2020/12/29 06:40:33;;;;;;;1999.90;999.90;;;4.90;99.90;;;;;;5063792;28;20139;-88
2020/12/29 06:43:00;;;;;;;1999.90;999.90;;;4.90;99.90;;;;;;5059002;28;20057;-88
2020/12/29 06:45:33;;;;;;;1999.90;999.90;;;4.90;99.90;;;;;;5064092;28;20487;-88
2020/12/29 06:48:00;;;;;;;1999.90;999.90;;;4.90;99.90;;;;;;5067028;28;20167;-88
2020/12/29 06:50:30;;;;;;;1999.90;999.90;;;4.90;99.90;;;;;;5059577;28;20140;-88
2020/12/29 06:53:01;;;;;;;1999.90;999.90;;;4.90;99.90;;;;;;5061095;28;20066;-88
2020/12/29 06:55:30;;;;;;;1999.90;999.90;;;4.80;99.90;;;;;;5058774;28;20502;-87
2020/12/29 06:57:57;;;;;;;1999.90;999.90;;;4.90;99.90;;;;;;5065973;28;20468;-88
2020/12/29 07:00:25;;;;;;;1999.90;999.90;;;4.90;99.90;;;;;;5066536;28;20087;-88
2020/12/29 07:02:54;;;;;;;1999.90;999.90;;;4.90;99.90;;;;;;5066732;28;20075;-88
2020/12/29 07:05:23;;;;;;;1999.90;999.90;;;4.90;99.90;;;;;;5065030;28;20124;-88
2020/12/29 07:07:58;;;;;;;1999.90;999.90;;;4.90;99.90;;;;;;5069626;28;20103;-87
2020/12/29 07:10:34;;;;;;;1999.90;999.90;;;4.90;99.90;;;;;;5062816;28;20060;-88
2020/12/29 07:13:06;;;;;;;1999.90;999.90;;;4.90;99.90;;;;;;5072746;28;20102;-88
2020/12/29 07:15:45;;;;;;;1999.90;999.90;;;5.00;99.90;;;;;;5070534;28;20494;-88
2020/12/29 07:18:16;;;;;;;1999.90;999.90;;;5.00;99.90;;;;;;5072890;28;20076;-88
2020/12/29 07:20:48;;;;;;;1999.90;999.90;;;4.90;99.90;;;;;;5072672;28;20076;-87
2020/12/29 07:23:17;;;;;;;1999.90;999.90;;;4.90;99.90;;;;;;5066748;28;20474;-88
2020/12/29 07:25:46;;;;;;;1999.90;999.90;;;5.00;99.90;;;;;;5063315;28;20127;-88
2020/12/29 07:28:22;;;;;;;1999.90;999.90;;;4.90;99.90;;;;;;5058336;28;20065;-88
2020/12/29 07:31:00;;;;;;;1999.90;999.90;;;4.90;99.90;;;;;;5072786;28;20060;-88
2020/12/29 07:33:27;;;;;;;1999.90;999.90;;;4.90;99.90;;;;;;5071735;28;20075;-88
2020/12/29 07:35:54;;;;;;;1999.90;999.90;;;4.90;99.90;;;;;;5076238;28;20076;-88
2020/12/29 07:38:24;;;;;;;1999.90;999.90;;;4.80;99.90;;;;;;5072513;28;20080;-88
2020/12/29 07:40:52;;;;;;;1999.90;999.90;;;4.80;99.90;;;;;;5074751;28;20119;-88
2020/12/29 07:43:19;;;;;;;1999.90;999.90;;;4.80;99.90;;;;;;5075915;28;20060;-88
2020/12/29 07:45:47;;;;;;;1999.90;999.90;;;4.80;99.90;;;;;;5074361;28;20059;-88
2020/12/29 07:48:14;;;;;;;1999.90;999.90;;;4.80;99.90;;;;;;5064370;28;20056;-88
2020/12/29 07:50:41;;;;;;;1999.90;999.90;;;4.80;99.90;;;;;;5061189;28;20133;-87
2020/12/29 07:53:10;;;;;;;1999.90;999.90;;;4.80;99.90;;;;;;5072731;28;20057;-88
2020/12/29 07:55:43;;;;;;;1999.90;999.90;;;4.80;99.90;;;;;;5076141;28;20109;-88
2020/12/29 07:58:11;;;;;;;1999.90;999.90;;;4.70;99.90;;;;;;5073773;28;20064;-88
2020/12/29 08:00:39;;;;;;;1999.90;999.90;;;4.80;99.90;;;;;;5076852;28;20083;-88
2020/12/29 08:03:07;;;;;;;1999.90;999.90;;;4.80;99.90;;;;;;5072903;28;20487;-88
2020/12/29 08:05:35;;;;;;;1999.90;999.90;;;4.80;99.90;;;;;;5074488;28;20127;-88
2020/12/29 08:08:04;;;;;;;1999.90;999.90;;;4.70;99.90;;;;;;5065630;28;20055;-88
2020/12/29 08:10:33;;;;;;;1999.90;999.90;;;4.80;99.90;;;;;;5068660;28;20139;-88
2020/12/29 08:13:03;;;;;;;1999.90;999.90;;;4.80;99.90;;;;;;5071334;28;20057;-88
2020/12/29 08:15:32;;;;;;;1999.90;999.90;;;4.80;99.90;;;;;;5068184;28;20076;-88
2020/12/29 08:18:01;;;;;;;1999.90;999.90;;;4.80;99.90;;;;;;5065389;28;20056;-88
2020/12/29 08:20:29;;;;;;;1999.90;999.90;;;4.90;99.90;;;;;;5059913;28;20468;-88
2020/12/29 08:22:57;;;;;;;1999.90;999.90;;;4.90;99.90;;;;;;5062732;28;20052;-88
2020/12/29 08:25:26;;;;;;;1999.90;999.90;;;4.90;99.90;;;;;;5067400;28;20123;-88
2020/12/29 08:27:53;;;;;;;1999.90;999.90;;;4.90;99.90;;;;;;5062155;28;20127;-88
2020/12/29 08:30:22;;;;;;;1999.90;999.90;;;4.90;99.90;;;;;;5059874;28;20087;-88
2020/12/29 08:32:54;;;;;;;1999.90;999.90;;;4.90;99.90;;;;;;5064058;28;20107;-88
2020/12/29 08:35:21;;;;;;;1999.90;999.90;;;4.90;99.90;;;;;;5065916;28;20490;-88
2020/12/29 08:38:03;;;;;;;1999.90;999.90;;;4.90;99.90;;;;;;5072000;28;20131;-88
2020/12/29 08:40:34;;;;;;;1999.90;999.90;;;4.90;99.90;;;;;;5058776;28;20110;-91
2020/12/29 08:43:01;;;;;;;1999.90;999.90;;;4.90;99.90;;;;;;5071770;28;20139;-90
2020/12/29 08:45:29;;;;;;;1999.90;999.90;;;4.90;99.90;;;;;;5070098;28;20048;-91
2020/12/29 08:47:57;;;;;;;1999.90;999.90;;;4.90;99.90;;;;;;5069700;28;20087;-91
2020/12/29 08:50:27;;;;;;;1999.90;999.90;;;4.90;99.90;;;;;;5072078;28;20115;-91
2020/12/29 08:53:04;;;;;;;1999.90;999.90;;;4.90;99.90;;;;;;5076520;28;20049;-91
2020/12/29 08:55:33;;;;;;;1999.90;999.90;;;4.80;99.90;;;;;;5071495;28;20056;-91
2020/12/29 08:58:01;;;;;;;1999.90;999.90;;;4.90;99.90;;;;;;5069483;28;20060;-91
2020/12/29 09:00:30;;;;;;;1999.90;999.90;;;4.90;99.90;;;;;;5064536;28;20052;-91
2020/12/29 09:02:57;;;;;;;1999.90;999.90;;;4.90;99.90;;;;;;5072008;28;20113;-91
2020/12/29 09:05:31;;;;;;;1999.90;999.90;;;4.80;99.90;;;;;;5075330;28;20048;-91
2020/12/29 09:07:58;;;;;;;1999.90;999.90;;;4.80;99.90;;;;;;5063551;28;20064;-91
2020/12/29 09:10:25;;;;;;;1999.90;999.90;;;4.80;99.90;;;;;;5073418;28;20065;-92
2020/12/29 09:12:52;;;;;;;1999.90;999.90;;;4.80;99.90;;;;;;5070628;28;20106;-92
2020/12/29 09:15:25;;;;;;;1999.90;999.90;;;4.80;99.90;;;;;;5074072;28;20052;-92
2020/12/29 09:17:58;;;;;;;1999.90;999.90;;;4.80;99.90;;;;;;5064704;28;20045;-91
2020/12/29 09:20:28;;;;;;;1999.90;999.90;;;4.80;99.90;;;;;;5072209;28;20426;-92
2020/12/29 09:22:58;;;;;;;1999.90;999.90;;;4.80;99.90;;;;;;5074932;28;20135;-92
2020/12/29 09:25:30;;;;;;;1999.90;999.90;;;4.90;99.90;;;;;;5067665;28;20057;-92
2020/12/29 09:28:18;;;;;;;1999.90;999.90;;;4.90;99.90;;;;;;5068632;28;20044;-92
2020/12/29 09:30:56;;;;;;;1999.90;999.90;;;4.90;99.90;;;;;;5073864;28;20045;-92
2020/12/29 09:33:25;;;;;;;1999.90;999.90;;;4.90;99.90;;;;;;5064474;28;20052;-92
2020/12/29 09:36:02;;;;;;;1999.90;999.90;;;4.90;99.90;;;;;;5060627;28;20090;-92
2020/12/29 09:38:31;;;;;;;1999.90;999.90;;;4.80;99.90;;;;;;5065163;28;20143;-92
2020/12/29 09:41:01;;;;;;;1999.90;999.90;;;4.70;99.90;;;;;;5068170;28;20044;-92
2020/12/29 09:43:31;;;;;;;1999.90;999.90;;;4.70;99.90;;;;;;5067705;28;20079;-91
2020/12/29 09:45:58;;;;;;;1999.90;999.90;;;4.70;99.90;;;;;;5066561;28;20041;-92
2020/12/29 09:48:27;;;;;;;1999.90;999.90;;;4.70;99.90;;;;;;5071878;28;20479;-92
2020/12/29 09:51:02;;;;;;;1999.90;999.90;;;4.70;99.90;;;;;;5069027;28;20510;-92
2020/12/29 09:53:29;;;;;;;1999.90;999.90;;;4.70;99.90;;;;;;5066119;28;20052;-92
2020/12/29 09:55:57;;;;;;;1999.90;999.90;;;4.70;99.90;;;;;;5066442;28;20052;-92
2020/12/29 09:58:28;;;;;;;1999.90;999.90;;;4.70;99.90;;;;;;5077299;28;20049;-92
2020/12/29 10:00:55;;;;;;;1999.90;999.90;;;4.70;99.90;;;;;;5072306;28;20056;-92
2020/12/29 10:03:26;;;;;;;1999.90;999.90;;;4.70;99.90;;;;;;5072321;28;20053;-92
2020/12/29 10:05:55;;;;;;;1999.90;999.90;;;4.70;99.90;;;;;;5068791;28;20042;-93
2020/12/29 10:08:23;;;;;;;1999.90;999.90;;;4.70;99.90;;;;;;5063472;28;20146;-92
2020/12/29 10:10:54;;;;;;;1999.90;999.90;;;4.80;99.90;;;;;;5067289;28;20140;-92
2020/12/29 10:13:34;;;;;;;1999.90;999.90;;;4.80;99.90;;;;;;5064759;28;20529;-92
2020/12/29 10:16:01;;;;;;;1999.90;999.90;;;4.80;99.90;;;;;;5062040;28;20049;-93
2020/12/29 10:18:31;;;;;;;1999.90;999.90;;;4.70;99.90;;;;;;5063494;28;20064;-92
2020/12/29 10:20:59;;;;;;;1999.90;999.90;;;4.70;99.90;;;;;;5075020;28;20068;-92
2020/12/29 10:23:26;;;;;;;1999.90;999.90;;;4.70;99.90;;;;;;5071687;28;20079;-91
2020/12/29 10:25:56;;;;;;;1999.90;999.90;;;4.80;99.90;;;;;;5070970;28;20122;-92
2020/12/29 10:28:23;;;;;;;1999.90;999.90;;;4.80;99.90;;;;;;5075750;28;20117;-92
2020/12/29 10:30:50;;;;;;;1999.90;999.90;;;4.80;99.90;;;;;;5072621;28;20102;-92
2020/12/29 10:33:18;;;;;;;1999.90;999.90;;;4.90;99.90;;;;;;5072854;28;20060;-93
2020/12/29 10:35:46;;;;;;;1999.90;999.90;;;4.90;99.90;;;;;;5073728;28;20067;-93
2020/12/29 10:38:16;;;;;;;1999.90;999.90;;;4.90;99.90;;;;;;5074005;28;20060;-92
2020/12/29 10:40:43;;;;;;;1999.90;999.90;;;4.90;99.90;;;;;;5073315;28;20083;-92
2020/12/29 10:43:10;;;;;;;1999.90;999.90;;;5.00;99.90;;;;;;5073494;28;20075;-93
2020/12/29 10:45:37;;;;;;;1999.90;999.90;;;5.00;99.90;;;;;;5072938;28;20047;-92
2020/12/29 10:48:05;;;;;;;1999.90;999.90;;;5.00;99.90;;;;;;5071824;28;20048;-92
2020/12/29 10:50:32;;;;;;;1999.90;999.90;;;5.00;99.90;;;;;;5068643;28;20053;-92
2020/12/29 10:53:03;;;;;;;1999.90;999.90;;;5.00;99.90;;;;;;5067707;28;20063;-92
2020/12/29 10:55:30;;;;;;;1999.90;999.90;;;5.10;99.90;;;;;;5080468;28;20052;-92
2020/12/29 10:57:57;;;;;;;1999.90;999.90;;;5.10;99.90;;;;;;5072741;28;20066;-92
2020/12/29 11:00:26;;;;;;;1999.90;999.90;;;5.10;99.90;;;;;;5072182;28;20403;-92
2020/12/29 11:02:54;;;;;;;1999.90;999.90;;;5.20;99.90;;;;;;5068499;28;20134;-92
2020/12/29 11:05:23;;;;;;;1999.90;999.90;;;5.20;99.90;;;;;;5081064;28;20055;-92
2020/12/29 11:07:52;;;;;;;1999.90;999.90;;;5.20;99.90;;;;;;5065708;28;20562;-92
2020/12/29 11:10:20;;;;;;;1999.90;999.90;;;5.20;99.90;;;;;;5077585;28;20060;-92
2020/12/29 11:12:48;;;;;;;1999.90;999.90;;;5.30;99.90;;;;;;5061481;28;20065;-92
2020/12/29 11:15:15;;;;;;;1999.90;999.90;;;5.30;99.90;;;;;;5085886;28;20049;-89
2020/12/29 11:17:43;;;;;;;1999.90;999.90;;;5.30;99.90;;;;;;5067886;28;20614;-88
2020/12/29 11:20:10;;;;;;;1999.90;999.90;;;5.30;99.90;;;;;;5065927;28;20135;-88
2020/12/29 11:22:41;;;;;;;1999.90;999.90;;;5.30;99.90;;;;;;5059070;28;20064;-89
2020/12/29 11:25:08;;;;;;;1999.90;999.90;;;5.30;99.90;;;;;;5063920;28;20052;-89
2020/12/29 11:27:37;;;;;;;1999.90;999.90;;;5.30;99.90;;;;;;5064509;28;20053;-89
2020/12/29 11:30:05;;;;;;;1999.90;999.90;;;5.20;99.90;;;;;;5065728;28;20130;-88
2020/12/29 11:32:33;;;;;;;1999.90;999.90;;;5.30;99.90;;;;;;5063333;28;20817;-88
2020/12/29 11:35:06;;;;;;;1999.90;999.90;;;5.30;99.90;;;;;;5066212;28;20045;-88
2020/12/29 11:37:34;;;;;;;1999.90;999.90;;;5.30;99.90;;;;;;5060716;28;20041;-88
2020/12/29 11:40:04;;;;;;;1999.90;999.90;;;5.30;99.90;;;;;;5066337;28;20080;-88
2020/12/29 11:42:31;;;;;;;1999.90;999.90;;;5.40;99.90;;;;;;5071057;28;20052;-87
2020/12/29 11:44:59;;;;;;;1999.90;999.90;;;5.50;99.90;;;;;;5068909;28;20048;-88
2020/12/29 11:47:26;;;;;;;1999.90;999.90;;;5.40;99.90;;;;;;5061896;28;20491;-88
2020/12/29 11:49:57;;;;;;;1999.90;999.90;;;5.50;99.90;;;;;;5065069;28;20450;-88
2020/12/29 11:52:24;;;;;;;1999.90;999.90;;;5.50;99.90;;;;;;5070435;28;20050;-88
2020/12/29 11:54:51;;;;;;;1999.90;999.90;;;5.50;99.90;;;;;;5067676;28;20065;-88
2020/12/29 11:57:19;;;;;;;1999.90;999.90;;;5.60;99.90;;;;;;5068136;28;20052;-88
2020/12/29 11:59:46;;;;;;;1999.90;999.90;;;5.60;99.90;;;;;;5069987;28;20142;-87
2020/12/29 12:02:14;;;;;;;1999.90;999.90;;;5.60;99.90;;;;;;5069279;28;20198;-88
2020/12/29 12:04:41;;;;;;;1999.90;999.90;;;5.60;99.90;;;;;;5057097;28;20140;-88
2020/12/29 12:07:11;;;;;;;1999.90;999.90;;;5.70;99.90;;;;;;5070824;28;20060;-88
2020/12/29 12:09:41;;;;;;;1999.90;999.90;;;5.60;99.90;;;;;;5075695;28;20060;-88
2020/12/29 12:12:08;;;;;;;1999.90;999.90;;;5.60;99.90;;;;;;5071600;28;20087;-88
2020/12/29 12:14:35;;;;;;;1999.90;999.90;;;5.60;99.90;;;;;;5063117;28;20056;-88
2020/12/29 12:17:02;;;;;;;1999.90;999.90;;;5.60;99.90;;;;;;5065215;28;20079;-89